Time;durP1;ratioP1;P1;durP2;ratioP2;P2;SDS_P1;SDS_P2;PMS_P1;PMS_P2;Temp;Humidity;BMP_temperature;BMP_pressure;BME280_temperature;BME280_humidity;BME280_pressure;Samples;Min_cycle;Max_cycle;Signal;HPM_P1;HPM_P2
2021/10/15 00:01:08;;;;;;;5.55;2.90;;;;;;;7.94;66.68;99163.22;5118862;28;20400;-94
2021/10/15 00:03:34;;;;;;;4.05;2.58;;;;;;;7.91;66.68;99147.34;5117811;28;20270;-95
2021/10/15 00:06:00;;;;;;;5.35;2.92;;;;;;;7.95;66.49;99157.03;5118844;28;20048;-92
2021/10/15 00:08:26;;;;;;;4.10;2.60;;;;;;;8.00;66.54;99143.72;5119155;28;20039;-93
2021/10/15 00:10:53;;;;;;;3.97;2.63;;;;;;;7.93;66.51;99132.31;5119412;28;20401;-94
2021/10/15 00:13:19;;;;;;;5.22;2.70;;;;;;;8.03;66.75;99149.88;5119731;28;20048;-94
2021/10/15 00:15:46;;;;;;;3.92;2.60;;;;;;;7.97;67.02;99154.38;5119065;28;20034;-93
2021/10/15 00:18:12;;;;;;;4.78;2.45;;;;;;;7.84;67.12;99132.44;5119486;28;20065;-93
2021/10/15 00:20:40;;;;;;;4.25;2.55;;;;;;;7.87;68.11;99140.34;5119722;28;20476;-94
2021/10/15 00:23:06;;;;;;;4.53;2.75;;;;;;;8.09;66.71;99153.34;5120174;28;20047;-93
2021/10/15 00:25:41;;;;;;;4.10;2.65;;;;;;;7.91;66.40;99128.81;5118781;28;20042;-94
2021/10/15 00:28:09;;;;;;;5.05;2.75;;;;;;;8.04;66.17;99142.81;5117461;28;20122;-94
2021/10/15 00:30:35;;;;;;;6.07;2.67;;;;;;;7.97;66.45;99139.34;5117631;28;20054;-93
2021/10/15 00:33:01;;;;;;;5.65;2.80;;;;;;;7.78;67.47;99106.88;5118262;28;20103;-94
2021/10/15 00:35:27;;;;;;;5.30;2.75;;;;;;;7.91;66.91;99127.94;5118444;28;20086;-93
2021/10/15 00:37:53;;;;;;;4.65;2.53;;;;;;;7.93;66.49;99126.16;5118327;28;20039;-94
2021/10/15 00:40:19;;;;;;;4.55;2.80;;;;;;;8.20;65.59;99115.25;5117400;28;20508;-94
2021/10/15 00:42:47;;;;;;;4.18;2.60;;;;;;;8.17;65.58;99093.22;5117238;28;20036;-94
2021/10/15 00:45:14;;;;;;;4.53;2.78;;;;;;;8.19;65.58;99105.53;5117328;28;20046;-94
2021/10/15 00:47:40;;;;;;;4.05;2.63;;;;;;;8.38;65.09;99119.44;5116705;28;20070;-92
2021/10/15 00:50:08;;;;;;;4.57;2.78;;;;;;;8.23;65.46;99106.41;5119459;28;20588;-94
2021/10/15 00:52:34;;;;;;;4.32;2.70;;;;;;;8.14;65.97;99110.03;5118054;28;20142;-93
2021/10/15 00:55:00;;;;;;;6.47;3.13;;;;;;;8.23;65.62;99107.25;5118196;28;20040;-94
2021/10/15 00:57:25;;;;;;;4.55;2.88;;;;;;;8.11;66.02;99102.13;5118864;28;20042;-94
2021/10/15 00:59:51;;;;;;;5.55;3.13;;;;;;;8.12;65.95;99103.88;5117209;28;20050;-95
2021/10/15 01:02:19;;;;;;;6.07;2.95;;;;;;;8.12;66.31;99114.47;5117387;28;20067;-95
2021/10/15 01:04:45;;;;;;;5.13;3.08;;;;;;;8.07;66.00;99111.00;5116841;28;20093;-93
2021/10/15 01:07:11;;;;;;;6.50;2.90;;;;;;;8.06;66.41;99106.59;5116560;28;20493;-94
2021/10/15 01:09:38;;;;;;;4.50;2.80;;;;;;;8.13;66.49;99117.97;5116834;28;20047;-95
2021/10/15 01:12:05;;;;;;;6.32;2.80;;;;;;;7.94;66.85;99091.72;5118864;28;20071;-93
2021/10/15 01:14:31;;;;;;;5.43;2.85;;;;;;;8.06;66.80;99111.88;5116934;28;20040;-94
2021/10/15 01:17:02;;;;;;;5.85;2.47;;;;;;;7.76;67.64;99070.72;5117543;28;20115;-94
2021/10/15 01:19:30;;;;;;;4.82;2.58;;;;;;;7.82;68.33;99108.59;5117945;28;20501;-94
2021/10/15 01:22:00;;;;;;;4.55;2.95;;;;;;;7.67;68.46;99089.38;5117743;28;20431;-94
2021/10/15 01:24:27;;;;;;;5.55;2.75;;;;;;;7.65;68.46;99083.22;5118372;28;20104;-95
2021/10/15 01:26:53;;;;;;;4.18;2.70;;;;;;;7.80;68.02;99077.75;5116925;28;20496;-94
2021/10/15 01:29:19;;;;;;;5.30;3.15;;;;;;;7.81;68.03;99079.53;5117479;28;20493;-93
2021/10/15 01:31:45;;;;;;;3.80;2.60;;;;;;;7.76;67.65;99068.09;5117084;28;20044;-94
2021/10/15 01:34:11;;;;;;;4.78;2.97;;;;;;;7.88;67.96;99083.84;5117844;28;20039;-94
2021/10/15 01:36:37;;;;;;;5.22;3.38;;;;;;;7.55;68.84;99061.28;5119045;28;20050;-93
2021/10/15 01:39:05;;;;;;;5.40;2.92;;;;;;;7.42;69.60;99068.44;5119252;28;20081;-94
2021/10/15 01:41:33;;;;;;;4.95;2.80;;;;;;;7.26;70.24;99053.59;5119126;28;20128;-95
2021/10/15 01:43:59;;;;;;;4.68;2.92;;;;;;;7.12;71.26;99048.44;5117249;28;20036;-94
2021/10/15 01:46:25;;;;;;;5.72;3.03;;;;;;;7.18;71.12;99070.44;5118719;28;20051;-95
2021/10/15 01:48:51;;;;;;;5.13;3.50;;;;;;;7.12;72.03;99070.47;5118642;28;20055;-94
2021/10/15 01:51:17;;;;;;;4.32;2.80;;;;;;;6.90;72.45;99050.41;5119544;28;20043;-94
2021/10/15 01:53:43;;;;;;;5.75;3.15;;;;;;;6.78;73.31;99046.94;5120122;28;20134;-93
2021/10/15 01:56:11;;;;;;;8.27;3.13;;;;;;;6.78;72.55;99038.13;5118946;28;20047;-94
2021/10/15 01:58:37;;;;;;;5.53;3.13;;;;;;;6.77;72.72;99050.47;5118247;28;20044;-94
2021/10/15 02:01:04;;;;;;;5.45;3.38;;;;;;;6.75;73.33;99046.97;5117326;28;20097;-94
2021/10/15 02:03:31;;;;;;;6.20;2.92;;;;;;;6.86;73.43;99027.50;5117479;28;20398;-94
2021/10/15 02:05:57;;;;;;;3.78;2.65;;;;;;;7.43;71.66;99048.16;5117575;28;20039;-94
2021/10/15 02:08:23;;;;;;;4.75;3.00;;;;;;;7.82;69.83;99044.19;5117692;28;20080;-93
2021/10/15 02:10:50;;;;;;;4.45;2.90;;;;;;;7.71;70.14;99048.75;5117723;28;20078;-94
2021/10/15 02:13:18;;;;;;;4.85;3.13;;;;;;;7.62;70.36;99031.19;5116527;28;20067;-94
2021/10/15 02:15:43;;;;;;;7.50;3.40;;;;;;;7.57;70.82;99015.38;5118395;28;20036;-93
2021/10/15 02:18:09;;;;;;;4.07;2.70;;;;;;;8.02;69.55;99043.94;5117289;28;20065;-93
2021/10/15 02:20:36;;;;;;;4.57;2.67;;;;;;;8.09;69.47;99039.44;5117151;28;20393;-94
2021/10/15 02:23:02;;;;;;;5.78;2.78;;;;;;;7.95;69.90;99013.16;5121330;28;20521;-94
2021/10/15 02:25:29;;;;;;;4.07;2.72;;;;;;;7.94;69.91;99022.88;5119794;28;20054;-93
2021/10/15 02:27:57;;;;;;;4.90;2.97;;;;;;;8.25;69.02;99029.56;5119103;28;20134;-94
2021/10/15 02:30:24;;;;;;;5.20;2.92;;;;;;;8.23;69.80;99037.50;5120263;28;20450;-93
2021/10/15 02:32:50;;;;;;;5.18;3.00;;;;;;;8.27;68.99;99019.81;5120116;28;20035;-94
2021/10/15 02:35:16;;;;;;;4.47;2.67;;;;;;;8.38;68.14;99012.59;5118855;28;20048;-94
2021/10/15 02:37:43;;;;;;;5.88;2.97;;;;;;;8.46;67.87;99016.03;5119077;28;20493;-93
2021/10/15 02:40:10;;;;;;;4.32;2.60;;;;;;;8.70;67.11;99012.13;5121026;28;20047;-92
2021/10/15 02:42:36;;;;;;;3.97;2.78;;;;;;;8.75;66.95;99012.94;5120359;28;20068;-93
2021/10/15 02:45:06;;;;;;;3.75;2.60;;;;;;;8.67;66.94;98993.59;5118724;28;20043;-94
2021/10/15 02:47:34;;;;;;;4.85;3.03;;;;;;;8.86;66.59;99001.28;5118939;28;20048;-94
2021/10/15 02:50:00;;;;;;;3.63;2.65;;;;;;;8.84;66.18;98988.03;5119405;28;20103;-95
2021/10/15 02:52:26;;;;;;;4.90;2.85;;;;;;;8.77;66.50;98986.41;5120292;28;20050;-94
2021/10/15 02:54:52;;;;;;;4.65;3.00;;;;;;;8.86;66.48;98996.84;5119023;28;20138;-94
2021/10/15 02:57:18;;;;;;;4.78;3.00;;;;;;;8.84;66.19;98975.66;5118878;28;20036;-94
2021/10/15 02:59:45;;;;;;;4.70;2.90;;;;;;;8.87;66.09;98984.47;5119555;28;20077;-94
2021/10/15 03:02:12;;;;;;;5.80;3.15;;;;;;;8.93;66.12;98997.63;5120663;28;20035;-94
2021/10/15 03:04:41;;;;;;;4.50;2.75;;;;;;;8.78;66.18;98965.16;5120072;28;20097;-93
2021/10/15 03:07:06;;;;;;;4.90;2.53;;;;;;;8.96;66.02;98990.50;5119943;28;20047;-93
2021/10/15 03:09:32;;;;;;;5.30;2.78;;;;;;;8.96;65.82;98989.63;5118813;28;20043;-93
2021/10/15 03:11:58;;;;;;;5.18;3.00;;;;;;;8.85;66.50;98995.09;5119547;28;20127;-93
2021/10/15 03:14:25;;;;;;;4.90;2.63;;;;;;;8.80;66.66;99003.16;5119185;28;20088;-95
2021/10/15 03:16:51;;;;;;;7.28;2.78;;;;;;;8.58;68.56;98991.13;5118959;28;20122;-94
2021/10/15 03:19:18;;;;;;;4.03;2.60;;;;;;;8.42;67.45;98962.19;5119136;28;20071;-93
2021/10/15 03:21:47;;;;;;;4.38;2.40;;;;;;;8.47;67.20;98959.47;5119958;28;20044;-94
2021/10/15 03:24:14;;;;;;;3.75;2.58;;;;;;;8.66;66.38;98977.75;5118662;28;20067;-94
2021/10/15 03:26:40;;;;;;;4.28;2.75;;;;;;;8.88;65.90;98997.69;5120064;28;20039;-93
2021/10/15 03:29:07;;;;;;;5.40;2.50;;;;;;;8.87;65.75;98992.41;5120062;28;20067;-93
2021/10/15 03:31:33;;;;;;;4.10;2.80;;;;;;;8.75;67.20;98990.84;5120152;28;20050;-93
2021/10/15 03:33:59;;;;;;;5.05;2.70;;;;;;;8.69;66.46;98980.34;5119250;28;20130;-94
2021/10/15 03:36:25;;;;;;;3.85;2.50;;;;;;;8.90;65.10;98979.13;5120011;28;20082;-94
2021/10/15 03:38:52;;;;;;;5.38;3.08;;;;;;;8.85;64.78;98971.25;5119320;28;20486;-94
2021/10/15 03:41:18;;;;;;;5.15;2.85;;;;;;;9.18;63.64;98959.16;5119403;28;20456;-94
2021/10/15 03:43:44;;;;;;;5.20;2.90;;;;;;;9.40;62.47;98972.03;5118891;28;20070;-93
2021/10/15 03:46:10;;;;;;;8.65;2.78;;;;;;;9.26;63.60;98959.03;5117834;28;20118;-94
2021/10/15 03:48:36;;;;;;;7.13;2.90;;;;;;;9.15;64.30;98968.94;5117537;28;20051;-93
2021/10/15 03:51:03;;;;;;;4.22;2.83;;;;;;;8.88;65.25;98949.97;5117526;28;20055;-94
2021/10/15 03:53:29;;;;;;;5.82;3.42;;;;;;;8.76;66.68;98979.31;5117624;28;20473;-94
2021/10/15 03:55:56;;;;;;;5.70;2.50;;;;;;;8.72;66.67;98985.56;5117660;28;20135;-94
2021/10/15 03:58:22;;;;;;;5.65;2.88;;;;;;;8.48;67.56;98960.34;5118598;28;20057;-93
2021/10/15 04:00:49;;;;;;;4.43;2.50;;;;;;;8.55;66.00;98954.94;5118922;28;20039;-93
2021/10/15 04:03:15;;;;;;;5.13;2.80;;;;;;;8.75;66.04;98980.25;5119511;28;20052;-93
2021/10/15 04:05:45;;;;;;;3.50;2.30;;;;;;;8.63;67.43;98981.28;5121105;28;20044;-94
2021/10/15 04:08:14;;;;;;;3.47;2.22;;;;;;;8.24;68.79;98943.91;5120726;28;20497;-95
2021/10/15 04:10:40;;;;;;;4.30;2.70;;;;;;;8.23;68.54;98944.78;5121881;28;20044;-95
2021/10/15 04:13:07;;;;;;;7.20;3.47;;;;;;;8.54;67.18;98960.25;5119897;28;20089;-95
2021/10/15 04:15:33;;;;;;;4.20;2.47;;;;;;;8.45;68.18;98963.03;5120684;28;20126;-95
2021/10/15 04:17:59;;;;;;;4.00;2.40;;;;;;;7.99;70.50;98931.00;5120423;28;20123;-95
2021/10/15 04:20:25;;;;;;;8.38;3.20;;;;;;;7.98;70.49;98963.69;5120563;28;20213;-96
2021/10/15 04:22:51;;;;;;;5.95;3.08;;;;;;;7.98;68.49;98931.00;5120194;28;20066;-94
2021/10/15 04:25:17;;;;;;;4.40;2.72;;;;;;;8.51;67.08;98957.66;5120410;28;20040;-95
2021/10/15 04:27:44;;;;;;;5.18;2.67;;;;;;;8.26;68.60;98928.84;5121050;28;20400;-94
2021/10/15 04:30:12;;;;;;;5.45;2.97;;;;;;;8.32;67.59;98931.41;5119321;28;20044;-95
2021/10/15 04:32:37;;;;;;;4.88;2.78;;;;;;;8.15;67.63;98913.09;5119901;28;20044;-95
2021/10/15 04:35:04;;;;;;;3.75;2.40;;;;;;;8.05;69.69;98929.19;5121279;28;20120;-94
2021/10/15 04:37:30;;;;;;;3.90;2.38;;;;;;;7.83;70.79;98934.78;5120038;28;20096;-94
2021/10/15 04:39:56;;;;;;;6.50;2.85;;;;;;;7.74;71.37;98935.78;5121178;28;20048;-96
2021/10/15 04:42:22;;;;;;;6.60;2.80;;;;;;;7.81;71.19;98936.56;5119319;28;20130;-93
2021/10/15 04:44:48;;;;;;;5.72;2.50;;;;;;;7.63;70.43;98905.88;5118648;28;20464;-95
2021/10/15 04:47:16;;;;;;;5.05;2.88;;;;;;;7.79;70.05;98906.59;5121088;28;20070;-96
2021/10/15 04:49:42;;;;;;;3.95;2.75;;;;;;;8.05;69.16;98926.53;5121084;28;20043;-95
2021/10/15 04:52:08;;;;;;;6.13;2.78;;;;;;;8.08;68.50;98900.84;5122383;28;20039;-94
2021/10/15 04:54:34;;;;;;;5.55;2.60;;;;;;;8.23;68.07;98919.16;5122279;28;20528;-95
2021/10/15 04:57:00;;;;;;;5.28;3.38;;;;;;;8.42;67.09;98903.91;5122302;28;20040;-95
2021/10/15 04:59:26;;;;;;;4.03;2.85;;;;;;;8.50;67.14;98914.38;5119258;28;20044;-94
2021/10/15 05:01:52;;;;;;;4.10;2.53;;;;;;;8.50;67.30;98921.44;5118288;28;20043;-94
2021/10/15 05:04:20;;;;;;;6.13;2.75;;;;;;;8.17;68.53;98895.41;5119993;28;20071;-95
2021/10/15 05:06:47;;;;;;;6.70;2.90;;;;;;;8.43;66.69;98876.47;5120696;28;20067;-95
2021/10/15 05:09:25;;;;;;;4.68;2.90;;;;;;;8.88;65.27;98906.66;5117168;28;20040;-93
2021/10/15 05:11:51;;;;;;;3.90;2.63;;;;;;;8.69;65.59;98872.50;5118285;28;20560;-96
2021/10/15 05:14:17;;;;;;;4.22;2.42;;;;;;;8.63;65.62;98875.25;5116879;28;20126;-95
2021/10/15 05:16:43;;;;;;;3.80;2.47;;;;;;;8.82;65.20;98889.06;5116270;28;20086;-94
2021/10/15 05:19:09;;;;;;;5.65;2.75;;;;;;;8.74;64.87;98883.94;5116779;28;20571;-95
2021/10/15 05:21:38;;;;;;;7.00;2.78;;;;;;;8.79;64.70;98873.22;5117065;28;20047;-94
2021/10/15 05:24:04;;;;;;;6.68;2.83;;;;;;;8.84;64.78;98880.19;5119899;28;20122;-95
2021/10/15 05:26:30;;;;;;;4.65;3.05;;;;;;;8.92;63.92;98877.41;5118079;28;20081;-95
2021/10/15 05:28:56;;;;;;;3.97;2.88;;;;;;;9.01;64.69;98894.94;5118280;28;20043;-95
2021/10/15 05:31:22;;;;;;;4.63;2.90;;;;;;;8.98;63.90;98887.03;5118313;28;20489;-94
2021/10/15 05:33:49;;;;;;;4.93;3.00;;;;;;;9.03;63.89;98864.81;5118851;28;20544;-95
2021/10/15 05:36:16;;;;;;;5.25;3.10;;;;;;;9.24;63.33;98874.13;5115555;28;20109;-94
2021/10/15 05:38:43;;;;;;;5.40;2.53;;;;;;;9.28;63.15;98872.28;5117955;28;20100;-95
2021/10/15 05:41:09;;;;;;;5.03;2.63;;;;;;;9.25;63.42;98878.53;5119084;28;20044;-94
2021/10/15 05:43:35;;;;;;;5.05;2.85;;;;;;;9.25;63.58;98872.34;5117429;28;20043;-95
2021/10/15 05:46:02;;;;;;;5.32;2.83;;;;;;;9.17;63.74;98864.56;5115194;28;20048;-94
2021/10/15 05:48:28;;;;;;;5.35;3.10;;;;;;;9.22;63.76;98875.94;5116088;28;20382;-94
2021/10/15 05:50:54;;;;;;;5.03;3.10;;;;;;;9.38;63.50;98891.56;5116054;28;20043;-94
2021/10/15 05:53:22;;;;;;;4.43;2.53;;;;;;;9.39;63.46;98903.91;5117713;28;20046;-93
2021/10/15 05:58:50;;;;;;;5.15;2.85;;;;;;;9.43;62.73;98885.25;5112358;27;20371;-93
2021/10/15 06:01:17;;;;;;;3.77;2.60;;;;;;;9.47;62.76;98875.44;5095591;28;20045;-93
2021/10/15 06:03:47;;;;;;;3.72;2.50;;;;;;;9.56;62.64;98885.84;5093914;28;20292;-93
2021/10/15 06:15:15;;;;;;;5.40;2.60;;;;;;;9.52;62.56;98878.88;5073676;27;20396;-93
2021/10/15 06:20:41;;;;;;;4.22;2.28;;;;;;;9.64;62.71;98894.53;5147685;27;20742;-93
2021/10/15 06:23:07;;;;;;;4.40;2.42;;;;;;;9.53;63.24;98880.63;5114491;28;20059;-93
2021/10/15 06:25:34;;;;;;;4.43;2.22;;;;;;;9.43;63.32;98868.44;5114267;28;20459;-93
2021/10/15 06:28:00;;;;;;;5.60;2.50;;;;;;;9.54;62.85;98866.44;5112754;28;20048;-93
2021/10/15 06:30:26;;;;;;;5.35;2.20;;;;;;;9.50;63.02;98856.81;5112590;28;20036;-92
2021/10/15 06:32:52;;;;;;;6.50;2.58;;;;;;;9.65;63.05;98879.50;5112694;28;20558;-93
2021/10/15 06:35:18;;;;;;;6.43;2.70;;;;;;;9.62;63.64;98888.38;5112753;28;20098;-92
2021/10/15 06:37:45;;;;;;;4.40;2.10;;;;;;;9.45;63.35;98869.28;5112745;28;20071;-93
2021/10/15 06:40:12;;;;;;;4.45;2.25;;;;;;;9.55;63.99;98894.72;5112839;28;20085;-93
2021/10/15 06:42:38;;;;;;;5.53;2.58;;;;;;;9.49;64.17;98886.88;5114289;28;20035;-93
2021/10/15 06:45:05;;;;;;;4.40;2.55;;;;;;;9.46;64.63;98897.59;5114028;28;20493;-92
2021/10/15 06:47:31;;;;;;;4.15;2.35;;;;;;;9.47;64.84;98883.38;5117901;28;20040;-95
2021/10/15 06:49:57;;;;;;;5.20;2.50;;;;;;;9.57;64.16;98900.88;5115574;28;20043;-94
2021/10/15 06:52:24;;;;;;;5.32;2.45;;;;;;;9.64;64.29;98891.00;5116985;28;20055;-92
2021/10/15 06:54:56;;;;;;;5.47;2.70;;;;;;;9.72;63.28;98885.53;5114409;28;20044;-94
2021/10/15 06:57:22;;;;;;;4.32;2.83;;;;;;;9.77;63.39;98883.66;5120253;28;20048;-93
2021/10/15 06:59:48;;;;;;;6.47;2.85;;;;;;;9.90;63.57;98898.41;5103093;28;20040;-93
2021/10/15 07:02:17;;;;;;;4.15;2.60;;;;;;;9.83;63.73;98880.88;5100916;28;20059;-95
2021/10/15 07:04:43;;;;;;;4.38;2.55;;;;;;;9.90;63.22;98885.13;5103023;28;20044;-94
2021/10/15 07:07:09;;;;;;;4.32;2.80;;;;;;;10.13;63.16;98911.19;5100577;28;20182;-93
2021/10/15 07:09:35;;;;;;;7.05;2.72;;;;;;;10.16;63.23;98897.81;5101051;28;20073;-93
2021/10/15 07:12:02;;;;;;;6.18;2.97;;;;;;;10.23;62.56;98901.19;5094948;28;20128;-92
2021/10/15 07:14:28;;;;;;;4.68;2.50;;;;;;;10.29;62.67;98887.78;5094261;28;20040;-92
2021/10/15 07:16:54;;;;;;;3.78;2.55;;;;;;;10.30;62.86;98886.00;5094539;28;20070;-93
2021/10/15 07:19:21;;;;;;;4.32;2.65;;;;;;;10.46;62.58;98890.91;5093493;28;20044;-92
2021/10/15 07:21:47;;;;;;;6.38;2.65;;;;;;;10.51;61.77;98863.34;5103482;28;20082;-94
2021/10/15 07:24:13;;;;;;;4.00;2.30;;;;;;;10.63;61.15;98863.03;5117098;28;20044;-94
2021/10/15 07:26:39;;;;;;;6.07;2.40;;;;;;;10.85;62.37;98885.50;5115041;28;20043;-93
2021/10/15 07:29:06;;;;;;;4.60;2.75;;;;;;;10.78;60.64;98867.97;5115069;28;20062;-92
2021/10/15 07:31:35;;;;;;;6.80;2.45;;;;;;;10.74;60.85;98863.63;5102681;28;20094;-93
2021/10/15 07:34:01;;;;;;;4.93;2.53;;;;;;;10.88;61.28;98877.41;5089987;28;20047;-94
2021/10/15 07:36:27;;;;;;;3.90;2.45;;;;;;;11.00;61.78;98878.91;5079236;28;20043;-94
2021/10/15 07:38:53;;;;;;;6.22;2.47;;;;;;;10.89;60.53;98857.91;5080002;28;20135;-94
2021/10/15 07:41:20;;;;;;;3.90;2.33;;;;;;;11.09;60.28;98861.81;5079967;28;20079;-94
2021/10/15 07:43:50;;;;;;;4.90;2.60;;;;;;;11.10;60.00;98848.47;5079763;28;20083;-94
2021/10/15 07:46:17;;;;;;;;;;;;;;;11.40;60.47;98874.25;5081230;28;20078;-94
2021/10/15 07:48:43;;;;;;;4.03;2.50;;;;;;;11.27;60.75;98841.78;5080741;28;19920;-94
2021/10/15 07:51:09;;;;;;;6.60;3.05;;;;;;;11.38;60.41;98866.28;5081216;28;20101;-94
2021/10/15 07:53:36;;;;;;;10.95;3.55;;;;;;;11.29;61.12;98870.09;5081031;28;20047;-94
2021/10/15 07:56:03;;;;;;;6.70;3.40;;;;;;;11.39;61.61;98888.50;5080727;28;20040;-94
2021/10/15 07:58:29;;;;;;;7.22;3.47;;;;;;;11.37;61.68;98883.19;5080557;28;20076;-94
2021/10/15 08:00:55;;;;;;;8.48;4.07;;;;;;;11.34;61.19;98871.75;5080663;28;20052;-94
2021/10/15 08:03:22;;;;;;;12.07;6.18;;;;;;;11.22;61.41;98889.81;5079771;28;20093;-94
2021/10/15 08:05:48;;;;;;;8.85;4.10;;;;;;;11.28;61.21;98872.81;5080081;28;20075;-94
2021/10/15 08:08:14;;;;;;;11.95;4.28;;;;;;;11.31;62.44;98859.41;5080122;28;20040;-94
2021/10/15 08:10:40;;;;;;;12.15;5.40;;;;;;;11.47;61.40;98857.16;5081090;28;20045;-95
2021/10/15 08:13:06;;;;;;;10.10;4.65;;;;;;;11.71;60.25;98871.56;5081497;28;20390;-94
2021/10/15 08:15:33;;;;;;;6.70;3.17;;;;;;;11.86;58.58;98876.44;5080211;28;20135;-95
2021/10/15 08:18:00;;;;;;;9.60;4.70;;;;;;;11.84;59.25;98851.63;5080472;28;20040;-94
2021/10/15 08:20:32;;;;;;;10.07;5.20;;;;;;;11.98;58.65;98851.22;5080652;28;20494;-94
2021/10/15 08:22:58;;;;;;;15.65;7.25;;;;;;;12.19;57.89;98880.75;5081624;28;20048;-95
2021/10/15 08:25:25;;;;;;;13.05;5.72;;;;;;;12.23;58.64;98871.75;5081211;28;20070;-95
2021/10/15 08:27:51;;;;;;;10.40;4.75;;;;;;;12.39;58.28;98870.34;5080820;28;20048;-96
2021/10/15 08:30:17;;;;;;;27.42;10.07;;;;;;;12.43;57.96;98855.13;5082672;28;20079;-95
2021/10/15 08:32:43;;;;;;;39.90;12.55;;;;;;;12.67;57.35;98870.28;5080905;28;20045;-96
2021/10/15 08:35:10;;;;;;;56.47;20.27;;;;;;;12.77;56.56;98852.16;5081240;28;20123;-95
2021/10/15 08:37:39;;;;;;;45.38;17.15;;;;;;;13.05;55.95;98870.75;5080450;28;20105;-94
2021/10/15 08:40:09;;;;;;;31.27;11.25;;;;;;;13.18;56.06;98871.19;5082019;28;20033;-94
2021/10/15 08:42:36;;;;;;;9.93;4.75;;;;;;;13.20;54.88;98863.13;5080220;28;20097;-94
2021/10/15 08:45:04;;;;;;;7.75;3.97;;;;;;;13.36;54.65;98867.03;5080271;28;20048;-94
2021/10/15 08:47:30;;;;;;;6.25;3.10;;;;;;;13.79;53.71;98848.47;5079290;28;20078;-94
2021/10/15 08:49:59;;;;;;;35.22;12.40;;;;;;;13.95;53.79;98838.94;5078657;28;20044;-94
2021/10/15 08:52:24;;;;;;;42.47;14.57;;;;;;;13.80;54.52;98847.56;5077586;28;20132;-95
2021/10/15 08:54:53;;;;;;;7.40;3.90;;;;;;;13.45;54.11;98825.75;5077992;28;20328;-93
2021/10/15 08:57:38;;;;;;;28.77;11.13;;;;;;;13.40;54.51;98830.38;5099225;28;20127;-95
2021/10/15 09:00:25;;;;;;;33.38;11.98;;;;;;;13.13;55.59;98817.94;5088913;28;20123;-94
2021/10/15 09:14:13;;;;;;;8.40;3.97;;;;;;;12.69;55.64;98832.91;5050954;28;20113;-94
2021/10/15 09:17:06;;;;;;;4.25;2.67;;;;;;;12.65;54.94;98840.13;5015550;28;20531;-94
2021/10/15 09:19:35;;;;;;;5.20;2.50;;;;;;;12.32;56.19;98828.81;5047101;28;20037;-95
2021/10/15 09:22:23;;;;;;;5.47;2.60;;;;;;;12.56;54.02;98813.78;5045588;28;20037;-92
2021/10/15 09:24:59;;;;;;;7.97;3.10;;;;;;;12.38;54.41;98814.38;5050638;28;20045;-93
2021/10/15 09:27:32;;;;;;;6.43;2.70;;;;;;;12.44;54.31;98817.72;5025689;28;20132;-92
2021/10/15 09:30:12;;;;;;;8.45;3.45;;;;;;;12.82;52.93;98812.88;5039419;28;20057;-94
2021/10/15 09:32:51;;;;;;;7.13;3.47;;;;;;;12.93;52.75;98825.81;5048041;28;20450;-93
2021/10/15 09:35:20;;;;;;;5.13;2.88;;;;;;;13.06;52.25;98802.22;5043362;28;21009;-93
2021/10/15 09:38:05;;;;;;;4.57;2.80;;;;;;;13.38;51.08;98792.16;5035885;28;20487;-94
2021/10/15 09:41:08;;;;;;;6.55;3.58;;;;;;;13.69;50.60;98798.06;5032943;28;20041;-94
2021/10/15 09:43:53;;;;;;;5.53;3.45;;;;;;;13.54;50.37;98783.50;5079831;28;20043;-93
2021/10/15 09:46:37;;;;;;;5.17;2.47;;;;;;;13.95;50.15;98786.34;5077741;28;20111;-93
2021/10/15 09:49:14;;;;;;;6.18;3.25;;;;;;;13.81;49.98;98794.03;5083259;28;20351;-91
2021/10/15 09:51:58;;;;;;;4.72;2.53;;;;;;;14.06;49.40;98803.75;5087508;28;20044;-95
2021/10/15 09:54:32;;;;;;;5.88;2.97;;;;;;;14.10;48.73;98790.19;5086890;28;20047;-95
2021/10/15 09:57:15;;;;;;;4.60;2.65;;;;;;;14.20;49.01;98814.75;5091951;28;20043;-92
2021/10/15 09:59:51;;;;;;;4.10;2.60;;;;;;;14.27;49.07;98772.56;5095461;28;20075;-92
2021/10/15 10:02:19;;;;;;;4.63;2.60;;;;;;;14.70;48.09;98794.84;5093435;28;20120;-96
2021/10/15 10:12:13;;;;;;;6.93;3.08;;;;;;;14.54;48.60;98782.09;5077965;28;20130;-93
2021/10/15 10:14:45;;;;;;;4.38;3.00;;;;;;;14.35;47.27;98765.94;5093107;28;20055;-91
2021/10/15 10:17:20;;;;;;;4.63;2.85;;;;;;;14.51;47.38;98763.50;5092448;28;20394;-91
2021/10/15 10:19:50;;;;;;;5.07;3.45;;;;;;;14.68;47.43;98789.56;5091320;28;20075;-90
2021/10/15 10:22:17;;;;;;;6.28;3.15;;;;;;;14.28;47.35;98787.69;5091349;28;20040;-93
2021/10/15 10:24:49;;;;;;;4.20;2.60;;;;;;;14.33;47.17;98794.59;5092269;28;20045;-94
2021/10/15 10:27:26;;;;;;;5.30;2.67;;;;;;;14.30;47.01;98764.41;5093054;28;20470;-93
2021/10/15 10:29:54;;;;;;;6.55;3.20;;;;;;;14.26;47.72;98733.38;5089110;28;20036;-94
2021/10/15 10:32:22;;;;;;;7.35;3.13;;;;;;;14.41;47.83;98755.94;5091165;28;20044;-91
2021/10/15 10:34:48;;;;;;;4.85;3.10;;;;;;;14.46;47.98;98760.13;5092901;28;20060;-94
2021/10/15 10:37:18;;;;;;;5.63;3.13;;;;;;;14.50;47.76;98753.72;5093343;28;20390;-93
2021/10/15 10:39:46;;;;;;;5.32;3.13;;;;;;;14.38;46.14;98736.41;5092916;28;20070;-92
2021/10/15 10:42:13;;;;;;;4.97;2.80;;;;;;;14.32;46.20;98755.38;5093220;28;20082;-93
2021/10/15 10:44:40;;;;;;;6.07;2.80;;;;;;;14.48;46.25;98747.56;5093155;28;20541;-93
2021/10/15 10:47:11;;;;;;;5.03;2.67;;;;;;;14.31;46.15;98718.00;5092874;28;20060;-93
2021/10/15 10:49:38;;;;;;;5.25;2.70;;;;;;;14.43;46.91;98727.31;5092227;28;20040;-91
2021/10/15 10:52:25;;;;;;;5.80;2.70;;;;;;;14.62;46.72;98746.16;5091343;28;20052;-94
2021/10/15 10:54:52;;;;;;;4.75;3.20;;;;;;;14.56;47.17;98747.28;5084717;28;20056;-93
2021/10/15 10:57:23;;;;;;;5.22;3.13;;;;;;;14.35;47.94;98735.66;5091133;28;20040;-92
2021/10/15 10:59:51;;;;;;;4.18;2.80;;;;;;;14.23;46.69;98721.03;5091359;28;20052;-92
2021/10/15 11:02:19;;;;;;;6.30;3.97;;;;;;;14.61;45.92;98752.44;5090814;28;20214;-92
2021/10/15 11:04:54;;;;;;;5.13;3.00;;;;;;;14.55;46.34;98733.03;5090064;28;20040;-93
2021/10/15 11:07:29;;;;;;;5.38;2.88;;;;;;;14.87;45.56;98737.88;5091347;28;20296;-92
2021/10/15 11:10:00;;;;;;;5.40;2.80;;;;;;;14.71;46.51;98716.28;5086063;28;20074;-89
2021/10/15 11:12:58;;;;;;;5.07;3.10;;;;;;;15.09;47.21;98724.38;5091941;28;20068;-93
2021/10/15 11:15:32;;;;;;;4.93;3.05;;;;;;;14.99;47.06;98730.16;5092524;28;20091;-95
2021/10/15 11:17:58;;;;;;;6.25;3.40;;;;;;;14.66;48.11;98718.28;5086950;28;20037;-92
2021/10/15 11:20:27;;;;;;;5.05;2.92;;;;;;;14.58;48.29;98707.94;5077690;28;20048;-94
2021/10/15 11:22:55;;;;;;;7.40;4.70;;;;;;;14.38;48.21;98668.66;5078466;28;20070;-91
2021/10/15 11:25:25;;;;;;;5.33;3.13;;;;;;;14.60;46.48;98678.44;5078999;28;20045;-91
2021/10/15 11:27:52;;;;;;;4.75;3.20;;;;;;;14.90;46.44;98708.31;5081496;28;20043;-92
2021/10/15 11:30:20;;;;;;;4.95;2.90;;;;;;;14.96;46.00;98690.16;5083811;28;20040;-94
2021/10/15 11:32:48;;;;;;;6.35;2.70;;;;;;;14.90;45.43;98678.84;5081524;28;20486;-94
2021/10/15 11:35:16;;;;;;;6.18;3.05;;;;;;;15.03;44.37;98684.50;5080915;28;20071;-95
2021/10/15 11:37:45;;;;;;;6.53;2.75;;;;;;;15.03;44.32;98676.44;5080829;28;20114;-94
2021/10/15 11:40:17;;;;;;;5.93;3.10;;;;;;;15.14;44.56;98683.06;5081819;28;20104;-94
2021/10/15 11:42:46;;;;;;;7.40;3.00;;;;;;;15.11;44.21;98682.31;5060739;28;20041;-93
2021/10/15 11:45:27;;;;;;;4.97;2.63;;;;;;;15.00;44.30;98664.09;5070636;28;20102;-94
2021/10/15 11:48:05;;;;;;;3.40;2.30;;;;;;;15.23;43.79;98686.25;5079906;28;20047;-93
2021/10/15 11:50:37;;;;;;;7.28;2.92;;;;;;;15.16;44.34;98669.59;5079269;28;20131;-92
2021/10/15 11:53:03;;;;;;;4.03;2.65;;;;;;;15.44;44.32;98679.88;5076126;28;20052;-91
2021/10/15 11:55:31;;;;;;;3.78;2.53;;;;;;;15.40;45.04;98681.81;5076647;28;20040;-92
2021/10/15 11:58:30;;;;;;;4.43;2.42;;;;;;;15.46;44.03;98688.72;5077316;28;20064;-91
2021/10/15 12:00:59;;;;;;;4.38;2.35;;;;;;;15.48;43.69;98681.44;5075625;28;20474;-93
2021/10/15 12:03:28;;;;;;;4.85;3.38;;;;;;;15.36;42.68;98669.50;5076495;28;20044;-93
2021/10/15 12:05:54;;;;;;;4.30;2.50;;;;;;;15.36;43.43;98661.47;5076594;28;20087;-93
2021/10/15 12:08:21;;;;;;;4.60;3.08;;;;;;;15.37;43.03;98614.09;5077884;28;20056;-94
2021/10/15 12:10:48;;;;;;;3.95;2.55;;;;;;;15.37;41.75;98622.16;5076829;28;20040;-94
2021/10/15 12:13:14;;;;;;;2.83;1.90;;;;;;;15.23;40.87;98606.75;5076966;28;20072;-93
2021/10/15 12:15:42;;;;;;;5.22;2.40;;;;;;;15.29;41.14;98614.50;5076939;28;20511;-95